Main page
METAR-TAF:

METAR-TAF

Airports :

Ondangwa Airport

Ondangwa, Namibia

latitude: 17-52-42S, longitude: 015-57-09E, elevation: 1096 m

Current weather observation

The report was made 1 hour and 13 minutes ago, at 18:00 UTC
Wind 7 kt from the West/Northwest
Temperature 31°C
Humidity 36%
Pressure 1011 hPa
Visibility 10 km or more
Few clouds at a height of 4500 ft

METAR: FYOA 181800Z 30007KT 9999 FEW045 31/14 Q1011

Time: 21:13 (19:13 UTC)

Forecast

The report was made 2 hours and 13 minutes ago, at 17:00 UTC
Forecast valid from 18 at 18 UTC to 19 at 03 UTC
Wind 5 kt from the East/Southeast
Visibility 10 km or more
Few clouds at a height of 4500 ft, Cumulonimbus.
thunderstorm, light rain
Becoming
from 18 at 20 UTC to 18 at 22 UTC
Wind 6 kt from the South/Southeast

TAF: FYOA 181700Z 1818/1903 11005KT 9999 -TSRA FEW045CB BECMG 1820/1822 16006KT NSW NSC

Weather observations and forecasts of more than 4000 airports (METAR and TAF reports).

The available stations are represented by yellow and red dots on the map.

Hover mouse over dot to see the name of the station.

Then click to see weather observations and forecasts.

To change the map : click on the green buttons with a black cross to zoom in, on the green button with a dash to zoom out, or on the green arrows for adjacent maps.


METAR-TAF: